sensor_id;sensor_type;location;lat;lon;timestamp;P1;durP1;ratioP1;P2;durP2;ratioP2
59728;SDS011;45588;51.598;5.618;2023-03-23T00:02:19;6.60;;;3.38;;
59728;SDS011;45588;51.598;5.618;2023-03-23T00:04:44;10.38;;;6.35;;
59728;SDS011;45588;51.598;5.618;2023-03-23T00:07:09;8.10;;;5.67;;
59728;SDS011;45588;51.598;5.618;2023-03-23T00:09:37;9.68;;;3.83;;
59728;SDS011;45588;51.598;5.618;2023-03-23T00:12:05;8.27;;;6.63;;
59728;SDS011;45588;51.598;5.618;2023-03-23T00:14:31;9.23;;;7.03;;
59728;SDS011;45588;51.598;5.618;2023-03-23T00:17:05;10.15;;;6.53;;
59728;SDS011;45588;51.598;5.618;2023-03-23T00:19:31;9.48;;;7.03;;
59728;SDS011;45588;51.598;5.618;2023-03-23T00:21:57;10.50;;;6.78;;
59728;SDS011;45588;51.598;5.618;2023-03-23T00:24:25;9.60;;;6.53;;
59728;SDS011;45588;51.598;5.618;2023-03-23T00:26:50;9.53;;;6.27;;
59728;SDS011;45588;51.598;5.618;2023-03-23T00:29:21;9.65;;;6.13;;
59728;SDS011;45588;51.598;5.618;2023-03-23T00:31:46;9.27;;;6.65;;
59728;SDS011;45588;51.598;5.618;2023-03-23T00:34:13;9.65;;;6.43;;
59728;SDS011;45588;51.598;5.618;2023-03-23T00:36:43;7.63;;;6.22;;
59728;SDS011;45588;51.598;5.618;2023-03-23T00:39:09;7.95;;;6.47;;
59728;SDS011;45588;51.598;5.618;2023-03-23T00:41:35;8.57;;;6.78;;
59728;SDS011;45588;51.598;5.618;2023-03-23T00:44:01;8.68;;;6.63;;
59728;SDS011;45588;51.598;5.618;2023-03-23T00:46:27;8.73;;;6.90;;
59728;SDS011;45588;51.598;5.618;2023-03-23T00:48:53;10.63;;;4.68;;
59728;SDS011;45588;51.598;5.618;2023-03-23T00:51:18;8.13;;;4.05;;
59728;SDS011;45588;51.598;5.618;2023-03-23T00:53:44;8.03;;;6.37;;
59728;SDS011;45588;51.598;5.618;2023-03-23T00:56:10;8.38;;;6.10;;
59728;SDS011;45588;51.598;5.618;2023-03-23T00:58:35;9.98;;;7.15;;
59728;SDS011;45588;51.598;5.618;2023-03-23T01:01:00;8.63;;;5.97;;
59728;SDS011;45588;51.598;5.618;2023-03-23T01:03:26;10.85;;;6.65;;
59728;SDS011;45588;51.598;5.618;2023-03-23T01:05:53;8.68;;;6.82;;
59728;SDS011;45588;51.598;5.618;2023-03-23T01:08:19;10.38;;;6.95;;
59728;SDS011;45588;51.598;5.618;2023-03-23T01:10:46;8.05;;;4.00;;
59728;SDS011;45588;51.598;5.618;2023-03-23T01:13:11;10.00;;;4.60;;
59728;SDS011;45588;51.598;5.618;2023-03-23T01:15:37;11.43;;;7.43;;
59728;SDS011;45588;51.598;5.618;2023-03-23T01:18:02;9.60;;;7.00;;
59728;SDS011;45588;51.598;5.618;2023-03-23T01:20:27;8.43;;;7.05;;
59728;SDS011;45588;51.598;5.618;2023-03-23T01:22:54;8.20;;;6.90;;
59728;SDS011;45588;51.598;5.618;2023-03-23T01:25:25;9.30;;;7.82;;
59728;SDS011;45588;51.598;5.618;2023-03-23T01:27:50;10.02;;;7.90;;
59728;SDS011;45588;51.598;5.618;2023-03-23T01:30:15;7.80;;;6.80;;
59728;SDS011;45588;51.598;5.618;2023-03-23T01:32:40;9.50;;;8.10;;
59728;SDS011;45588;51.598;5.618;2023-03-23T01:35:05;9.63;;;7.23;;
59728;SDS011;45588;51.598;5.618;2023-03-23T01:37:31;10.68;;;7.30;;
59728;SDS011;45588;51.598;5.618;2023-03-23T01:39:56;9.02;;;7.40;;
59728;SDS011;45588;51.598;5.618;2023-03-23T01:42:25;8.23;;;7.43;;
59728;SDS011;45588;51.598;5.618;2023-03-23T01:47:16;10.02;;;7.53;;
59728;SDS011;45588;51.598;5.618;2023-03-23T01:49:44;9.57;;;7.30;;
59728;SDS011;45588;51.598;5.618;2023-03-23T01:52:12;9.82;;;7.40;;
59728;SDS011;45588;51.598;5.618;2023-03-23T01:54:42;7.00;;;3.95;;
59728;SDS011;45588;51.598;5.618;2023-03-23T01:57:11;7.78;;;6.97;;
59728;SDS011;45588;51.598;5.618;2023-03-23T01:59:38;8.15;;;7.03;;
59728;SDS011;45588;51.598;5.618;2023-03-23T02:02:03;7.72;;;6.93;;
59728;SDS011;45588;51.598;5.618;2023-03-23T02:04:29;9.23;;;7.07;;
59728;SDS011;45588;51.598;5.618;2023-03-23T02:06:56;7.95;;;6.65;;
59728;SDS011;45588;51.598;5.618;2023-03-23T02:09:22;9.38;;;6.70;;
59728;SDS011;45588;51.598;5.618;2023-03-23T02:11:48;8.73;;;6.93;;
59728;SDS011;45588;51.598;5.618;2023-03-23T02:14:14;9.45;;;6.32;;
59728;SDS011;45588;51.598;5.618;2023-03-23T02:16:44;4.63;;;3.67;;
59728;SDS011;45588;51.598;5.618;2023-03-23T02:27:04;7.85;;;6.32;;
59728;SDS011;45588;51.598;5.618;2023-03-23T02:29:44;6.10;;;4.32;;
59728;SDS011;45588;51.598;5.618;2023-03-23T02:34:58;8.35;;;6.72;;
59728;SDS011;45588;51.598;5.618;2023-03-23T02:37:28;5.68;;;4.32;;
59728;SDS011;45588;51.598;5.618;2023-03-23T02:39:56;5.75;;;4.20;;
59728;SDS011;45588;51.598;5.618;2023-03-23T02:42:24;9.02;;;6.75;;
59728;SDS011;45588;51.598;5.618;2023-03-23T02:44:51;10.98;;;6.93;;
59728;SDS011;45588;51.598;5.618;2023-03-23T02:47:19;8.27;;;6.45;;
59728;SDS011;45588;51.598;5.618;2023-03-23T02:49:45;8.60;;;6.50;;
59728;SDS011;45588;51.598;5.618;2023-03-23T02:52:12;8.23;;;6.40;;
59728;SDS011;45588;51.598;5.618;2023-03-23T02:54:41;10.40;;;7.38;;
59728;SDS011;45588;51.598;5.618;2023-03-23T02:57:07;7.13;;;5.60;;
59728;SDS011;45588;51.598;5.618;2023-03-23T02:59:33;8.23;;;6.38;;
59728;SDS011;45588;51.598;5.618;2023-03-23T03:04:27;7.93;;;6.47;;
59728;SDS011;45588;51.598;5.618;2023-03-23T03:12:17;10.38;;;6.60;;
59728;SDS011;45588;51.598;5.618;2023-03-23T03:14:55;8.13;;;4.40;;
59728;SDS011;45588;51.598;5.618;2023-03-23T03:17:24;9.60;;;6.55;;
59728;SDS011;45588;51.598;5.618;2023-03-23T03:19:50;8.15;;;6.55;;
59728;SDS011;45588;51.598;5.618;2023-03-23T03:22:17;8.65;;;6.40;;
59728;SDS011;45588;51.598;5.618;2023-03-23T03:24:45;7.90;;;6.35;;
59728;SDS011;45588;51.598;5.618;2023-03-23T03:27:12;12.20;;;4.15;;
59728;SDS011;45588;51.598;5.618;2023-03-23T03:29:40;8.30;;;6.30;;
59728;SDS011;45588;51.598;5.618;2023-03-23T03:32:10;8.02;;;6.63;;
59728;SDS011;45588;51.598;5.618;2023-03-23T03:34:36;9.40;;;6.20;;
59728;SDS011;45588;51.598;5.618;2023-03-23T03:37:01;8.45;;;6.22;;
59728;SDS011;45588;51.598;5.618;2023-03-23T03:39:30;7.95;;;6.50;;
59728;SDS011;45588;51.598;5.618;2023-03-23T03:41:55;11.30;;;6.30;;
59728;SDS011;45588;51.598;5.618;2023-03-23T03:44:20;11.43;;;6.53;;
59728;SDS011;45588;51.598;5.618;2023-03-23T03:46:45;10.57;;;6.30;;
59728;SDS011;45588;51.598;5.618;2023-03-23T03:49:11;8.93;;;6.53;;
59728;SDS011;45588;51.598;5.618;2023-03-23T03:51:37;7.65;;;6.55;;
59728;SDS011;45588;51.598;5.618;2023-03-23T03:54:03;8.32;;;6.10;;
59728;SDS011;45588;51.598;5.618;2023-03-23T03:56:28;7.97;;;3.47;;
59728;SDS011;45588;51.598;5.618;2023-03-23T03:58:53;8.27;;;5.50;;
59728;SDS011;45588;51.598;5.618;2023-03-23T04:01:19;9.02;;;5.72;;
59728;SDS011;45588;51.598;5.618;2023-03-23T04:03:47;8.95;;;5.57;;
59728;SDS011;45588;51.598;5.618;2023-03-23T04:06:13;5.80;;;3.33;;
59728;SDS011;45588;51.598;5.618;2023-03-23T04:08:38;8.77;;;5.13;;
59728;SDS011;45588;51.598;5.618;2023-03-23T04:11:04;7.38;;;4.75;;
59728;SDS011;45588;51.598;5.618;2023-03-23T04:13:29;9.20;;;5.10;;
59728;SDS011;45588;51.598;5.618;2023-03-23T04:15:55;11.15;;;5.47;;
59728;SDS011;45588;51.598;5.618;2023-03-23T04:18:20;10.55;;;4.57;;
59728;SDS011;45588;51.598;5.618;2023-03-23T04:20:46;11.88;;;5.10;;
59728;SDS011;45588;51.598;5.618;2023-03-23T04:23:17;9.38;;;4.60;;
59728;SDS011;45588;51.598;5.618;2023-03-23T04:25:46;7.80;;;2.97;;
59728;SDS011;45588;51.598;5.618;2023-03-23T04:28:12;9.98;;;4.22;;
59728;SDS011;45588;51.598;5.618;2023-03-23T04:30:38;8.93;;;4.43;;
59728;SDS011;45588;51.598;5.618;2023-03-23T04:33:03;9.88;;;4.15;;
59728;SDS011;45588;51.598;5.618;2023-03-23T04:35:28;7.73;;;4.30;;
59728;SDS011;45588;51.598;5.618;2023-03-23T04:37:54;12.90;;;4.68;;
59728;SDS011;45588;51.598;5.618;2023-03-23T04:40:19;12.68;;;4.78;;
59728;SDS011;45588;51.598;5.618;2023-03-23T04:42:45;2.58;;;2.08;;
59728;SDS011;45588;51.598;5.618;2023-03-23T04:45:11;8.70;;;3.70;;
59728;SDS011;45588;51.598;5.618;2023-03-23T04:47:38;12.35;;;4.43;;
59728;SDS011;45588;51.598;5.618;2023-03-23T04:50:06;7.70;;;3.53;;
59728;SDS011;45588;51.598;5.618;2023-03-23T04:52:31;13.18;;;4.05;;
59728;SDS011;45588;51.598;5.618;2023-03-23T04:54:56;10.00;;;3.85;;
59728;SDS011;45588;51.598;5.618;2023-03-23T04:57:22;10.82;;;3.70;;
59728;SDS011;45588;51.598;5.618;2023-03-23T04:59:47;9.98;;;3.47;;
59728;SDS011;45588;51.598;5.618;2023-03-23T05:02:13;8.77;;;3.67;;
59728;SDS011;45588;51.598;5.618;2023-03-23T05:04:38;4.30;;;1.40;;
59728;SDS011;45588;51.598;5.618;2023-03-23T05:07:05;12.57;;;3.38;;
59728;SDS011;45588;51.598;5.618;2023-03-23T05:09:31;12.40;;;3.70;;
59728;SDS011;45588;51.598;5.618;2023-03-23T05:11:56;6.70;;;1.92;;
59728;SDS011;45588;51.598;5.618;2023-03-23T05:14:24;13.98;;;3.72;;
59728;SDS011;45588;51.598;5.618;2023-03-23T05:16:49;6.35;;;1.95;;
59728;SDS011;45588;51.598;5.618;2023-03-23T05:19:16;14.45;;;3.78;;
59728;SDS011;45588;51.598;5.618;2023-03-23T05:21:42;12.30;;;3.73;;
59728;SDS011;45588;51.598;5.618;2023-03-23T05:24:09;9.00;;;3.75;;
59728;SDS011;45588;51.598;5.618;2023-03-23T05:26:34;9.17;;;3.57;;
59728;SDS011;45588;51.598;5.618;2023-03-23T05:28:59;10.93;;;2.40;;
59728;SDS011;45588;51.598;5.618;2023-03-23T05:31:24;10.13;;;3.00;;
59728;SDS011;45588;51.598;5.618;2023-03-23T05:33:49;12.13;;;3.75;;
59728;SDS011;45588;51.598;5.618;2023-03-23T05:36:15;9.23;;;3.28;;
59728;SDS011;45588;51.598;5.618;2023-03-23T05:38:41;10.43;;;3.03;;
59728;SDS011;45588;51.598;5.618;2023-03-23T05:41:10;8.70;;;1.80;;
59728;SDS011;45588;51.598;5.618;2023-03-23T05:43:35;10.32;;;3.40;;
59728;SDS011;45588;51.598;5.618;2023-03-23T05:46:00;8.77;;;3.20;;
59728;SDS011;45588;51.598;5.618;2023-03-23T05:48:26;18.33;;;3.70;;
59728;SDS011;45588;51.598;5.618;2023-03-23T05:50:52;9.90;;;3.08;;
59728;SDS011;45588;51.598;5.618;2023-03-23T05:53:17;12.00;;;3.23;;
59728;SDS011;45588;51.598;5.618;2023-03-23T05:55:42;8.48;;;3.38;;
59728;SDS011;45588;51.598;5.618;2023-03-23T05:58:07;12.13;;;3.80;;
59728;SDS011;45588;51.598;5.618;2023-03-23T06:00:32;12.13;;;3.60;;
59728;SDS011;45588;51.598;5.618;2023-03-23T06:03:00;7.72;;;2.13;;
59728;SDS011;45588;51.598;5.618;2023-03-23T06:05:26;11.40;;;4.00;;
59728;SDS011;45588;51.598;5.618;2023-03-23T06:07:51;9.73;;;4.07;;
59728;SDS011;45588;51.598;5.618;2023-03-23T06:10:17;10.73;;;4.30;;
59728;SDS011;45588;51.598;5.618;2023-03-23T06:12:42;9.98;;;4.20;;
59728;SDS011;45588;51.598;5.618;2023-03-23T06:15:08;12.20;;;4.32;;
59728;SDS011;45588;51.598;5.618;2023-03-23T06:17:34;6.80;;;2.72;;
59728;SDS011;45588;51.598;5.618;2023-03-23T06:19:59;9.60;;;3.83;;
59728;SDS011;45588;51.598;5.618;2023-03-23T06:22:25;6.37;;;2.87;;
59728;SDS011;45588;51.598;5.618;2023-03-23T06:24:50;11.52;;;4.47;;
59728;SDS011;45588;51.598;5.618;2023-03-23T06:27:15;10.50;;;3.63;;
59728;SDS011;45588;51.598;5.618;2023-03-23T06:29:41;15.80;;;4.40;;
59728;SDS011;45588;51.598;5.618;2023-03-23T06:32:06;10.93;;;4.22;;
59728;SDS011;45588;51.598;5.618;2023-03-23T06:34:32;14.23;;;4.35;;
59728;SDS011;45588;51.598;5.618;2023-03-23T06:36:57;12.27;;;3.95;;
59728;SDS011;45588;51.598;5.618;2023-03-23T06:39:23;9.82;;;4.72;;
59728;SDS011;45588;51.598;5.618;2023-03-23T06:41:48;12.02;;;4.18;;
59728;SDS011;45588;51.598;5.618;2023-03-23T06:44:14;15.98;;;4.40;;
59728;SDS011;45588;51.598;5.618;2023-03-23T06:46:40;14.85;;;4.57;;
59728;SDS011;45588;51.598;5.618;2023-03-23T06:49:06;10.27;;;3.95;;
59728;SDS011;45588;51.598;5.618;2023-03-23T06:51:31;6.75;;;3.00;;
59728;SDS011;45588;51.598;5.618;2023-03-23T06:53:56;12.97;;;4.27;;
59728;SDS011;45588;51.598;5.618;2023-03-23T06:56:22;11.75;;;4.30;;
59728;SDS011;45588;51.598;5.618;2023-03-23T06:58:47;7.60;;;2.00;;
59728;SDS011;45588;51.598;5.618;2023-03-23T07:01:13;12.25;;;3.60;;
59728;SDS011;45588;51.598;5.618;2023-03-23T07:03:40;6.80;;;2.03;;
59728;SDS011;45588;51.598;5.618;2023-03-23T07:06:06;14.65;;;3.92;;
59728;SDS011;45588;51.598;5.618;2023-03-23T07:08:31;15.68;;;4.28;;
59728;SDS011;45588;51.598;5.618;2023-03-23T07:10:57;10.87;;;4.10;;
59728;SDS011;45588;51.598;5.618;2023-03-23T07:13:22;17.42;;;4.57;;
59728;SDS011;45588;51.598;5.618;2023-03-23T07:15:47;14.32;;;4.65;;
59728;SDS011;45588;51.598;5.618;2023-03-23T07:18:14;17.15;;;4.55;;
59728;SDS011;45588;51.598;5.618;2023-03-23T07:20:39;12.38;;;4.05;;
59728;SDS011;45588;51.598;5.618;2023-03-23T07:23:04;8.88;;;2.78;;
59728;SDS011;45588;51.598;5.618;2023-03-23T07:25:32;11.77;;;1.85;;
59728;SDS011;45588;51.598;5.618;2023-03-23T07:27:58;13.07;;;4.20;;
59728;SDS011;45588;51.598;5.618;2023-03-23T07:30:24;10.32;;;4.07;;
59728;SDS011;45588;51.598;5.618;2023-03-23T07:32:51;12.65;;;4.00;;
59728;SDS011;45588;51.598;5.618;2023-03-23T07:35:16;10.70;;;4.63;;
59728;SDS011;45588;51.598;5.618;2023-03-23T07:37:41;14.77;;;4.70;;
59728;SDS011;45588;51.598;5.618;2023-03-23T07:40:07;7.53;;;2.97;;
59728;SDS011;45588;51.598;5.618;2023-03-23T07:42:43;9.07;;;3.00;;
59728;SDS011;45588;51.598;5.618;2023-03-23T07:45:09;11.43;;;3.28;;
59728;SDS011;45588;51.598;5.618;2023-03-23T07:47:34;11.90;;;4.13;;
59728;SDS011;45588;51.598;5.618;2023-03-23T07:50:00;7.30;;;3.10;;
59728;SDS011;45588;51.598;5.618;2023-03-23T07:52:26;7.50;;;2.92;;
59728;SDS011;45588;51.598;5.618;2023-03-23T07:54:51;6.47;;;2.25;;
59728;SDS011;45588;51.598;5.618;2023-03-23T07:57:16;4.15;;;2.03;;
59728;SDS011;45588;51.598;5.618;2023-03-23T07:59:42;4.43;;;1.60;;
59728;SDS011;45588;51.598;5.618;2023-03-23T08:02:07;2.40;;;1.40;;
59728;SDS011;45588;51.598;5.618;2023-03-23T08:04:33;1.25;;;0.90;;
59728;SDS011;45588;51.598;5.618;2023-03-23T08:07:02;4.25;;;1.92;;
59728;SDS011;45588;51.598;5.618;2023-03-23T08:09:27;2.67;;;0.87;;
59728;SDS011;45588;51.598;5.618;2023-03-23T08:11:52;5.00;;;1.60;;
59728;SDS011;45588;51.598;5.618;2023-03-23T08:14:17;4.60;;;1.55;;
59728;SDS011;45588;51.598;5.618;2023-03-23T08:16:43;5.47;;;2.03;;
59728;SDS011;45588;51.598;5.618;2023-03-23T08:19:08;5.13;;;2.70;;
59728;SDS011;45588;51.598;5.618;2023-03-23T08:21:33;2.77;;;1.33;;
59728;SDS011;45588;51.598;5.618;2023-03-23T08:24:00;9.43;;;2.55;;
59728;SDS011;45588;51.598;5.618;2023-03-23T08:26:26;4.63;;;2.63;;
59728;SDS011;45588;51.598;5.618;2023-03-23T08:28:51;7.03;;;2.78;;
59728;SDS011;45588;51.598;5.618;2023-03-23T08:31:16;8.13;;;3.22;;
59728;SDS011;45588;51.598;5.618;2023-03-23T08:33:42;1.40;;;1.27;;
59728;SDS011;45588;51.598;5.618;2023-03-23T08:36:07;3.55;;;2.03;;
59728;SDS011;45588;51.598;5.618;2023-03-23T08:38:33;6.72;;;2.40;;
59728;SDS011;45588;51.598;5.618;2023-03-23T08:41:00;5.70;;;2.03;;
59728;SDS011;45588;51.598;5.618;2023-03-23T08:43:26;8.60;;;3.22;;
59728;SDS011;45588;51.598;5.618;2023-03-23T08:45:52;3.80;;;2.03;;
59728;SDS011;45588;51.598;5.618;2023-03-23T08:48:17;5.03;;;2.13;;
59728;SDS011;45588;51.598;5.618;2023-03-23T08:50:43;2.47;;;1.10;;
59728;SDS011;45588;51.598;5.618;2023-03-23T08:53:08;5.63;;;2.20;;
59728;SDS011;45588;51.598;5.618;2023-03-23T08:55:33;5.30;;;2.37;;
59728;SDS011;45588;51.598;5.618;2023-03-23T08:57:58;3.33;;;1.73;;
59728;SDS011;45588;51.598;5.618;2023-03-23T09:00:23;12.10;;;8.00;;
59728;SDS011;45588;51.598;5.618;2023-03-23T09:02:52;7.30;;;4.90;;
59728;SDS011;45588;51.598;5.618;2023-03-23T09:05:18;4.47;;;1.70;;
59728;SDS011;45588;51.598;5.618;2023-03-23T09:07:45;4.68;;;2.28;;
59728;SDS011;45588;51.598;5.618;2023-03-23T09:10:11;11.13;;;4.50;;
59728;SDS011;45588;51.598;5.618;2023-03-23T09:12:36;7.20;;;4.97;;
59728;SDS011;45588;51.598;5.618;2023-03-23T09:15:05;5.53;;;2.15;;
59728;SDS011;45588;51.598;5.618;2023-03-23T09:17:47;6.65;;;2.08;;
59728;SDS011;45588;51.598;5.618;2023-03-23T09:20:14;9.15;;;2.95;;
59728;SDS011;45588;51.598;5.618;2023-03-23T09:22:40;5.20;;;2.15;;
59728;SDS011;45588;51.598;5.618;2023-03-23T09:25:06;6.63;;;2.30;;
59728;SDS011;45588;51.598;5.618;2023-03-23T09:27:32;4.75;;;2.25;;
59728;SDS011;45588;51.598;5.618;2023-03-23T09:29:58;10.68;;;2.40;;
59728;SDS011;45588;51.598;5.618;2023-03-23T09:32:23;7.80;;;2.08;;
59728;SDS011;45588;51.598;5.618;2023-03-23T09:34:48;8.45;;;2.38;;
59728;SDS011;45588;51.598;5.618;2023-03-23T09:37:14;4.72;;;1.52;;
59728;SDS011;45588;51.598;5.618;2023-03-23T09:39:39;4.53;;;1.87;;
59728;SDS011;45588;51.598;5.618;2023-03-23T09:44:42;4.43;;;1.80;;
59728;SDS011;45588;51.598;5.618;2023-03-23T09:47:20;7.63;;;2.80;;
59728;SDS011;45588;51.598;5.618;2023-03-23T09:49:53;6.05;;;2.22;;
59728;SDS011;45588;51.598;5.618;2023-03-23T09:52:18;4.70;;;2.38;;
59728;SDS011;45588;51.598;5.618;2023-03-23T09:54:46;6.38;;;2.97;;
59728;SDS011;45588;51.598;5.618;2023-03-23T09:59:54;7.07;;;2.13;;
59728;SDS011;45588;51.598;5.618;2023-03-23T10:02:27;6.35;;;2.53;;
59728;SDS011;45588;51.598;5.618;2023-03-23T10:04:54;4.97;;;2.30;;
59728;SDS011;45588;51.598;5.618;2023-03-23T10:07:21;7.10;;;2.20;;
59728;SDS011;45588;51.598;5.618;2023-03-23T10:09:48;5.57;;;2.38;;
59728;SDS011;45588;51.598;5.618;2023-03-23T10:12:36;8.07;;;3.28;;
59728;SDS011;45588;51.598;5.618;2023-03-23T10:15:04;6.15;;;2.55;;
59728;SDS011;45588;51.598;5.618;2023-03-23T10:17:34;9.30;;;2.40;;
59728;SDS011;45588;51.598;5.618;2023-03-23T10:22:31;19.20;;;12.85;;
59728;SDS011;45588;51.598;5.618;2023-03-23T10:25:44;8.73;;;3.38;;
59728;SDS011;45588;51.598;5.618;2023-03-23T10:30:19;9.10;;;3.88;;
59728;SDS011;45588;51.598;5.618;2023-03-23T10:32:53;6.50;;;2.67;;
59728;SDS011;45588;51.598;5.618;2023-03-23T10:35:28;7.22;;;2.47;;
59728;SDS011;45588;51.598;5.618;2023-03-23T10:38:05;7.45;;;2.67;;
59728;SDS011;45588;51.598;5.618;2023-03-23T10:40:31;8.23;;;2.60;;
59728;SDS011;45588;51.598;5.618;2023-03-23T10:43:00;7.57;;;2.70;;
59728;SDS011;45588;51.598;5.618;2023-03-23T10:45:26;7.65;;;2.63;;
59728;SDS011;45588;51.598;5.618;2023-03-23T10:47:57;6.40;;;2.67;;
59728;SDS011;45588;51.598;5.618;2023-03-23T10:50:31;7.88;;;3.17;;
59728;SDS011;45588;51.598;5.618;2023-03-23T10:52:57;8.60;;;2.88;;
59728;SDS011;45588;51.598;5.618;2023-03-23T10:55:23;7.88;;;3.13;;
59728;SDS011;45588;51.598;5.618;2023-03-23T10:58:01;7.97;;;3.20;;
59728;SDS011;45588;51.598;5.618;2023-03-23T11:00:27;11.52;;;5.93;;
59728;SDS011;45588;51.598;5.618;2023-03-23T11:08:12;8.13;;;2.92;;
59728;SDS011;45588;51.598;5.618;2023-03-23T11:10:39;8.50;;;3.35;;
59728;SDS011;45588;51.598;5.618;2023-03-23T11:13:09;7.85;;;2.97;;
59728;SDS011;45588;51.598;5.618;2023-03-23T11:15:39;4.85;;;2.47;;
59728;SDS011;45588;51.598;5.618;2023-03-23T11:18:05;6.72;;;2.85;;
59728;SDS011;45588;51.598;5.618;2023-03-23T11:20:34;6.28;;;3.15;;
59728;SDS011;45588;51.598;5.618;2023-03-23T11:23:00;7.97;;;3.15;;
59728;SDS011;45588;51.598;5.618;2023-03-23T11:25:26;10.02;;;3.60;;
59728;SDS011;45588;51.598;5.618;2023-03-23T11:27:51;7.13;;;3.28;;
59728;SDS011;45588;51.598;5.618;2023-03-23T11:30:21;7.47;;;2.70;;
59728;SDS011;45588;51.598;5.618;2023-03-23T11:32:48;8.30;;;3.13;;
59728;SDS011;45588;51.598;5.618;2023-03-23T11:35:19;9.82;;;3.30;;
59728;SDS011;45588;51.598;5.618;2023-03-23T11:37:49;8.48;;;3.35;;
59728;SDS011;45588;51.598;5.618;2023-03-23T11:40:17;8.55;;;2.97;;
59728;SDS011;45588;51.598;5.618;2023-03-23T11:45:21;8.07;;;2.75;;
59728;SDS011;45588;51.598;5.618;2023-03-23T11:47:49;8.77;;;2.80;;
59728;SDS011;45588;51.598;5.618;2023-03-23T11:52:49;7.63;;;2.80;;
59728;SDS011;45588;51.598;5.618;2023-03-23T11:55:22;9.75;;;2.67;;
59728;SDS011;45588;51.598;5.618;2023-03-23T12:00:14;7.28;;;2.60;;
59728;SDS011;45588;51.598;5.618;2023-03-23T12:08:18;6.03;;;2.15;;
59728;SDS011;45588;51.598;5.618;2023-03-23T12:10:56;7.65;;;2.78;;
59728;SDS011;45588;51.598;5.618;2023-03-23T12:13:41;4.47;;;2.22;;
59728;SDS011;45588;51.598;5.618;2023-03-23T12:23:55;9.85;;;2.67;;
59728;SDS011;45588;51.598;5.618;2023-03-23T12:26:23;7.20;;;3.50;;
59728;SDS011;45588;51.598;5.618;2023-03-23T12:41:20;7.90;;;3.00;;
59728;SDS011;45588;51.598;5.618;2023-03-23T12:43:56;6.43;;;2.95;;
59728;SDS011;45588;51.598;5.618;2023-03-23T12:46:40;5.38;;;2.70;;
59728;SDS011;45588;51.598;5.618;2023-03-23T12:49:09;6.25;;;2.55;;
59728;SDS011;45588;51.598;5.618;2023-03-23T12:51:42;9.23;;;3.22;;
59728;SDS011;45588;51.598;5.618;2023-03-23T12:54:11;11.13;;;3.05;;
59728;SDS011;45588;51.598;5.618;2023-03-23T12:57:24;8.43;;;3.47;;
59728;SDS011;45588;51.598;5.618;2023-03-23T12:59:26;10.75;;;3.47;;
59728;SDS011;45588;51.598;5.618;2023-03-23T13:01:56;6.80;;;2.75;;
59728;SDS011;45588;51.598;5.618;2023-03-23T13:04:25;7.97;;;2.88;;
59728;SDS011;45588;51.598;5.618;2023-03-23T13:06:52;6.85;;;2.78;;
59728;SDS011;45588;51.598;5.618;2023-03-23T13:11:56;10.73;;;2.97;;
59728;SDS011;45588;51.598;5.618;2023-03-23T13:22:39;9.88;;;3.08;;
59728;SDS011;45588;51.598;5.618;2023-03-23T13:25:13;8.60;;;3.20;;
59728;SDS011;45588;51.598;5.618;2023-03-23T13:27:38;8.07;;;2.95;;
59728;SDS011;45588;51.598;5.618;2023-03-23T13:30:03;13.60;;;4.33;;
59728;SDS011;45588;51.598;5.618;2023-03-23T13:34:55;8.45;;;3.83;;
59728;SDS011;45588;51.598;5.618;2023-03-23T13:37:22;10.23;;;4.85;;
59728;SDS011;45588;51.598;5.618;2023-03-23T13:39:49;7.13;;;3.53;;
59728;SDS011;45588;51.598;5.618;2023-03-23T13:44:42;15.18;;;9.35;;
59728;SDS011;45588;51.598;5.618;2023-03-23T13:47:21;12.18;;;3.92;;
59728;SDS011;45588;51.598;5.618;2023-03-23T13:49:50;10.05;;;3.47;;
59728;SDS011;45588;51.598;5.618;2023-03-23T13:52:17;8.68;;;3.75;;
59728;SDS011;45588;51.598;5.618;2023-03-23T13:54:44;10.02;;;3.25;;
59728;SDS011;45588;51.598;5.618;2023-03-23T13:59:56;11.25;;;4.25;;
59728;SDS011;45588;51.598;5.618;2023-03-23T14:02:40;10.10;;;4.60;;
59728;SDS011;45588;51.598;5.618;2023-03-23T14:07:53;6.78;;;2.97;;
59728;SDS011;45588;51.598;5.618;2023-03-23T14:10:18;9.55;;;2.40;;
59728;SDS011;45588;51.598;5.618;2023-03-23T14:12:44;5.47;;;2.35;;
59728;SDS011;45588;51.598;5.618;2023-03-23T14:15:13;7.97;;;2.00;;
59728;SDS011;45588;51.598;5.618;2023-03-23T14:17:42;4.93;;;2.08;;
59728;SDS011;45588;51.598;5.618;2023-03-23T14:20:30;6.43;;;2.30;;
59728;SDS011;45588;51.598;5.618;2023-03-23T14:22:57;6.72;;;2.65;;
59728;SDS011;45588;51.598;5.618;2023-03-23T14:25:22;7.80;;;3.05;;
59728;SDS011;45588;51.598;5.618;2023-03-23T14:27:51;8.75;;;2.72;;
59728;SDS011;45588;51.598;5.618;2023-03-23T14:30:19;9.02;;;2.90;;
59728;SDS011;45588;51.598;5.618;2023-03-23T14:32:45;8.85;;;3.58;;
59728;SDS011;45588;51.598;5.618;2023-03-23T14:37:44;7.68;;;2.95;;
59728;SDS011;45588;51.598;5.618;2023-03-23T14:40:14;6.72;;;3.30;;
59728;SDS011;45588;51.598;5.618;2023-03-23T14:42:40;6.68;;;3.25;;
59728;SDS011;45588;51.598;5.618;2023-03-23T14:45:05;8.05;;;3.53;;
59728;SDS011;45588;51.598;5.618;2023-03-23T14:47:32;8.30;;;4.18;;
59728;SDS011;45588;51.598;5.618;2023-03-23T14:49:59;5.63;;;3.20;;
59728;SDS011;45588;51.598;5.618;2023-03-23T14:52:26;9.30;;;3.85;;
59728;SDS011;45588;51.598;5.618;2023-03-23T14:54:52;14.95;;;4.60;;
59728;SDS011;45588;51.598;5.618;2023-03-23T14:57:18;10.17;;;4.53;;
59728;SDS011;45588;51.598;5.618;2023-03-23T14:59:44;10.63;;;4.85;;
59728;SDS011;45588;51.598;5.618;2023-03-23T15:04:53;9.18;;;4.25;;
59728;SDS011;45588;51.598;5.618;2023-03-23T15:07:19;8.38;;;4.05;;
59728;SDS011;45588;51.598;5.618;2023-03-23T15:09:45;12.70;;;4.50;;
59728;SDS011;45588;51.598;5.618;2023-03-23T15:12:19;11.55;;;3.97;;
59728;SDS011;45588;51.598;5.618;2023-03-23T15:14:46;12.57;;;4.57;;
59728;SDS011;45588;51.598;5.618;2023-03-23T15:17:19;11.13;;;4.18;;
59728;SDS011;45588;51.598;5.618;2023-03-23T15:19:45;8.38;;;3.65;;
59728;SDS011;45588;51.598;5.618;2023-03-23T15:22:29;11.23;;;4.15;;
59728;SDS011;45588;51.598;5.618;2023-03-23T15:27:43;10.52;;;3.50;;
59728;SDS011;45588;51.598;5.618;2023-03-23T15:30:14;10.07;;;4.18;;
59728;SDS011;45588;51.598;5.618;2023-03-23T15:32:41;9.15;;;3.83;;
59728;SDS011;45588;51.598;5.618;2023-03-23T15:35:11;11.75;;;4.00;;
59728;SDS011;45588;51.598;5.618;2023-03-23T15:37:39;11.73;;;4.03;;
59728;SDS011;45588;51.598;5.618;2023-03-23T15:40:04;9.10;;;3.50;;
59728;SDS011;45588;51.598;5.618;2023-03-23T15:42:31;10.57;;;4.20;;
59728;SDS011;45588;51.598;5.618;2023-03-23T15:47:36;7.15;;;2.90;;
59728;SDS011;45588;51.598;5.618;2023-03-23T15:50:04;8.00;;;3.42;;
59728;SDS011;45588;51.598;5.618;2023-03-23T15:52:32;8.00;;;3.60;;
59728;SDS011;45588;51.598;5.618;2023-03-23T15:54:57;8.23;;;3.10;;
59728;SDS011;45588;51.598;5.618;2023-03-23T15:57:22;12.67;;;3.80;;
59728;SDS011;45588;51.598;5.618;2023-03-23T15:59:48;9.53;;;3.47;;
59728;SDS011;45588;51.598;5.618;2023-03-23T16:02:17;7.95;;;3.40;;
59728;SDS011;45588;51.598;5.618;2023-03-23T16:04:43;11.73;;;3.75;;
59728;SDS011;45588;51.598;5.618;2023-03-23T16:07:08;8.73;;;3.65;;
59728;SDS011;45588;51.598;5.618;2023-03-23T16:09:37;6.65;;;3.40;;
59728;SDS011;45588;51.598;5.618;2023-03-23T16:12:03;9.80;;;3.67;;
59728;SDS011;45588;51.598;5.618;2023-03-23T16:14:28;10.23;;;4.03;;
59728;SDS011;45588;51.598;5.618;2023-03-23T16:16:53;11.37;;;3.13;;
59728;SDS011;45588;51.598;5.618;2023-03-23T16:19:19;13.52;;;4.70;;
59728;SDS011;45588;51.598;5.618;2023-03-23T16:21:48;10.05;;;4.78;;
59728;SDS011;45588;51.598;5.618;2023-03-23T16:24:13;11.75;;;3.97;;
59728;SDS011;45588;51.598;5.618;2023-03-23T16:26:38;8.63;;;3.50;;